Time;durP1;ratioP1;P1;durP2;ratioP2;P2;SDS_P1;SDS_P2;PMS_P1;PMS_P2;Temp;Humidity;BMP_temperature;BMP_pressure;BME280_temperature;BME280_humidity;BME280_pressure;Samples;Min_cycle;Max_cycle;Signal;HPM_P1;HPM_P2
2022/08/26 00:01:04;;;;;;;;;4.00;4.00;;;;;;;;5073679;28;51267;-61
2022/08/26 00:03:30;;;;;;;;;5.67;5.67;;;;;;;;5072366;27;51138;-62
2022/08/26 00:05:55;;;;;;;;;4.00;4.00;;;;;;;;5074634;27;51029;-61
2022/08/26 00:08:21;;;;;;;;;5.00;5.00;;;;;;;;5066542;27;51175;-61
2022/08/26 00:10:46;;;;;;;;;6.33;6.33;;;;;;;;5056175;28;51645;-61
2022/08/26 00:13:11;;;;;;;;;4.00;4.00;;;;;;;;5073525;28;51208;-61
2022/08/26 00:15:37;;;;;;;;;4.00;4.00;;;;;;;;5066467;28;51016;-61
2022/08/26 00:18:02;;;;;;;;;4.67;4.00;;;;;;;;5070332;28;51424;-62
2022/08/26 00:20:30;;;;;;;;;7.00;7.00;;;;;;;;5069186;28;51966;-62
2022/08/26 00:22:55;;;;;;;;;4.67;4.67;;;;;;;;5075427;28;50902;-62
2022/08/26 00:25:20;;;;;;;;;5.00;5.00;;;;;;;;5073853;27;51392;-61
2022/08/26 00:27:46;;;;;;;;;4.67;4.67;;;;;;;;5074345;28;50921;-61
2022/08/26 00:30:14;;;;;;;;;6.00;4.00;;;;;;;;5074731;27;52047;-61
2022/08/26 00:32:40;;;;;;;;;7.00;7.00;;;;;;;;5074662;28;51150;-61
2022/08/26 00:35:06;;;;;;;;;6.00;6.00;;;;;;;;5073198;28;51000;-59
2022/08/26 00:37:31;;;;;;;;;6.00;6.00;;;;;;;;5062567;28;51439;-61
2022/08/26 00:39:57;;;;;;;;;5.00;4.67;;;;;;;;5069664;28;51287;-62
2022/08/26 00:42:22;;;;;;;;;6.00;5.00;;;;;;;;5073479;28;50930;-61
2022/08/26 00:44:47;;;;;;;;;3.00;3.00;;;;;;;;5073489;28;51108;-61
2022/08/26 00:47:26;;;;;;;;;6.00;6.00;;;;;;;;5067511;28;51017;-61
2022/08/26 00:49:52;;;;;;;;;5.33;5.33;;;;;;;;5074191;28;52549;-61
2022/08/26 00:52:18;;;;;;;;;5.33;5.00;;;;;;;;5074536;28;51273;-61
2022/08/26 00:54:48;;;;;;;;;5.67;5.67;;;;;;;;5068955;28;51148;-61
2022/08/26 00:57:15;;;;;;;;;8.00;6.00;;;;;;;;5060132;28;51815;-61
2022/08/26 00:59:40;;;;;;;;;5.33;5.33;;;;;;;;5067498;28;52951;-61
2022/08/26 01:02:05;;;;;;;;;5.00;5.00;;;;;;;;5090022;27;51035;-61
2022/08/26 01:04:33;;;;;;;;;5.00;5.00;;;;;;;;5074677;28;50976;-62
2022/08/26 01:06:58;;;;;;;;;5.00;4.00;;;;;;;;5073964;28;51105;-61
2022/08/26 01:09:24;;;;;;;;;7.00;7.00;;;;;;;;5067860;27;52083;-61
2022/08/26 01:11:51;;;;;;;;;6.33;6.33;;;;;;;;5065279;27;52208;-61
2022/08/26 01:14:18;;;;;;;;;6.00;6.00;;;;;;;;5074802;27;50997;-62
2022/08/26 01:16:44;;;;;;;;;7.67;7.00;;;;;;;;5071898;28;51441;-61
2022/08/26 01:19:15;;;;;;;;;6.00;6.00;;;;;;;;5059634;28;51211;-61
2022/08/26 01:21:44;;;;;;;;;9.00;9.00;;;;;;;;5072827;28;51020;-61
2022/08/26 01:24:10;;;;;;;;;6.00;6.00;;;;;;;;5063232;28;51074;-61
2022/08/26 01:26:40;;;;;;;;;8.00;7.00;;;;;;;;5063498;28;50836;-61
2022/08/26 01:29:06;;;;;;;;;8.00;7.33;;;;;;;;5062142;28;52378;-61
2022/08/26 01:31:36;;;;;;;;;6.00;6.00;;;;;;;;5073692;28;51212;-61
2022/08/26 01:34:16;;;;;;;;;6.00;6.00;;;;;;;;5065960;28;52567;-61
2022/08/26 01:36:42;;;;;;;;;8.00;8.00;;;;;;;;5062229;28;51468;-62
2022/08/26 01:39:07;;;;;;;;;7.67;7.33;;;;;;;;5058830;27;52143;-62
2022/08/26 01:41:33;;;;;;;;;7.67;7.67;;;;;;;;5067291;28;51048;-61
2022/08/26 01:44:00;;;;;;;;;8.00;7.00;;;;;;;;5070367;28;51005;-61
2022/08/26 01:46:27;;;;;;;;;9.33;9.00;;;;;;;;5062505;27;51233;-61
2022/08/26 01:48:54;;;;;;;;;9.00;8.33;;;;;;;;5073339;28;51116;-61
2022/08/26 01:51:20;;;;;;;;;8.00;8.00;;;;;;;;5069572;27;50982;-61
2022/08/26 01:53:46;;;;;;;;;7.67;7.33;;;;;;;;5071860;27;50923;-61
2022/08/26 01:56:11;;;;;;;;;10.67;10.67;;;;;;;;5073603;28;51104;-61
2022/08/26 01:58:49;;;;;;;;;10.00;9.00;;;;;;;;5073425;28;52179;-60
2022/08/26 02:01:14;;;;;;;;;8.67;7.67;;;;;;;;5060460;28;51283;-60
2022/08/26 02:03:55;;;;;;;;;9.33;9.33;;;;;;;;5073647;28;51077;-61
2022/08/26 02:06:20;;;;;;;;;10.00;10.00;;;;;;;;5058280;27;50990;-61
2022/08/26 02:08:47;;;;;;;;;8.33;8.33;;;;;;;;5072490;27;53052;-61
2022/08/26 02:11:13;;;;;;;;;11.33;11.33;;;;;;;;5073378;28;51325;-61
2022/08/26 02:13:43;;;;;;;;;11.00;11.00;;;;;;;;5073215;27;50995;-61
2022/08/26 02:16:09;;;;;;;;;11.00;11.00;;;;;;;;5068318;27;51152;-61
2022/08/26 02:18:37;;;;;;;;;10.33;10.33;;;;;;;;5072019;28;52028;-60
2022/08/26 02:21:03;;;;;;;;;11.67;11.00;;;;;;;;5070236;28;50963;-60
2022/08/26 02:23:28;;;;;;;;;11.33;11.33;;;;;;;;5073018;27;50965;-60
2022/08/26 02:25:58;;;;;;;;;12.67;12.00;;;;;;;;5067061;28;50901;-61
2022/08/26 02:28:26;;;;;;;;;13.67;10.00;;;;;;;;5062532;28;51829;-61
2022/08/26 02:30:52;;;;;;;;;12.00;11.33;;;;;;;;5073017;28;51064;-61
2022/08/26 02:33:17;;;;;;;;;12.00;12.00;;;;;;;;5067588;28;50938;-61
2022/08/26 02:35:42;;;;;;;;;11.00;11.00;;;;;;;;5069010;28;51060;-61
2022/08/26 02:38:09;;;;;;;;;14.00;14.00;;;;;;;;5064629;28;51140;-61
2022/08/26 02:40:39;;;;;;;;;15.75;14.00;;;;;;;;5064247;28;51356;-61
2022/08/26 02:43:04;;;;;;;;;13.00;12.25;;;;;;;;5060427;28;51155;-60
2022/08/26 02:45:30;;;;;;;;;10.25;10.00;;;;;;;;5070017;28;50967;-60
2022/08/26 02:47:56;;;;;;;;;15.00;14.00;;;;;;;;5059817;27;51102;-60
2022/08/26 02:50:22;;;;;;;;;12.00;11.00;;;;;;;;5066130;28;51159;-61
2022/08/26 02:52:47;;;;;;;;;14.25;13.00;;;;;;;;5052406;28;51218;-61
2022/08/26 02:55:12;;;;;;;;;15.50;15.00;;;;;;;;5067892;28;51323;-61
2022/08/26 02:57:38;;;;;;;;;13.00;12.00;;;;;;;;5069881;28;51840;-60
2022/08/26 03:00:04;;;;;;;;;12.00;12.00;;;;;;;;5068983;28;51148;-61
2022/08/26 03:02:30;;;;;;;;;14.00;14.00;;;;;;;;5056535;28;52359;-61
2022/08/26 03:04:55;;;;;;;;;13.33;13.00;;;;;;;;5054560;28;50773;-61
2022/08/26 03:07:20;;;;;;;;;14.00;12.33;;;;;;;;5071040;27;52149;-62
2022/08/26 03:09:45;;;;;;;;;17.33;15.67;;;;;;;;5067878;28;52619;-61
2022/08/26 03:12:10;;;;;;;;;15.67;15.33;;;;;;;;5065575;27;51020;-61
2022/08/26 03:14:36;;;;;;;;;15.00;12.67;;;;;;;;5075835;27;51512;-61
2022/08/26 03:17:02;;;;;;;;;19.50;18.00;;;;;;;;5070952;28;52565;-61
2022/08/26 03:19:27;;;;;;;;;18.75;16.00;;;;;;;;5074195;28;50904;-61
2022/08/26 03:21:53;;;;;;;;;15.67;15.67;;;;;;;;5064612;28;51085;-61
2022/08/26 03:24:19;;;;;;;;;15.75;14.75;;;;;;;;5054512;28;51088;-60
2022/08/26 03:26:44;;;;;;;;;19.67;17.00;;;;;;;;5056578;27;51130;-61
2022/08/26 03:32:10;;;;;;;;;13.00;12.00;;;;;;;;5020889;28;51296;-63
2022/08/26 03:34:36;;;;;;;;;16.25;15.25;;;;;;;;5060031;27;51145;-60
2022/08/26 03:37:01;;;;;;;;;14.75;13.50;;;;;;;;5067860;28;52110;-60
2022/08/26 03:39:26;;;;;;;;;15.75;15.75;;;;;;;;5067476;28;51212;-60
2022/08/26 03:41:51;;;;;;;;;18.00;17.00;;;;;;;;5059896;28;51100;-60
2022/08/26 03:44:16;;;;;;;;;18.00;15.50;;;;;;;;5061198;28;50935;-61
2022/08/26 03:46:42;;;;;;;;;16.50;15.50;;;;;;;;5064380;27;51961;-61
2022/08/26 03:49:07;;;;;;;;;18.50;17.00;;;;;;;;5059939;28;51241;-61
2022/08/26 03:51:33;;;;;;;;;19.50;18.00;;;;;;;;5062717;28;51217;-61
2022/08/26 03:53:59;;;;;;;;;15.67;15.00;;;;;;;;5065834;28;51612;-61
2022/08/26 03:56:25;;;;;;;;;16.50;16.25;;;;;;;;5053031;28;51303;-61
2022/08/26 03:58:51;;;;;;;;;16.75;15.50;;;;;;;;5062871;28;51028;-60
2022/08/26 04:01:16;;;;;;;;;14.00;12.67;;;;;;;;5072667;28;51195;-60
2022/08/26 04:03:57;;;;;;;;;16.25;15.50;;;;;;;;5073291;28;51325;-60
2022/08/26 04:06:22;;;;;;;;;17.33;17.00;;;;;;;;5070407;27;52197;-60
2022/08/26 04:08:48;;;;;;;;;15.67;15.67;;;;;;;;5037139;28;51178;-60
2022/08/26 04:11:18;;;;;;;;;18.25;17.00;;;;;;;;5062611;28;51048;-60
2022/08/26 04:13:43;;;;;;;;;17.25;16.50;;;;;;;;5065692;28;51063;-62
2022/08/26 04:16:08;;;;;;;;;18.75;18.75;;;;;;;;5054457;28;52043;-62
2022/08/26 04:18:36;;;;;;;;;15.00;15.00;;;;;;;;5050869;28;51163;-60
2022/08/26 04:21:02;;;;;;;;;17.25;17.25;;;;;;;;5051615;28;50907;-61
2022/08/26 04:23:27;;;;;;;;;18.67;18.33;;;;;;;;5039639;28;51383;-61
2022/08/26 04:25:52;;;;;;;;;16.67;15.67;;;;;;;;5045525;28;51799;-60
2022/08/26 04:28:17;;;;;;;;;21.33;18.67;;;;;;;;5047396;28;51093;-60
2022/08/26 04:30:43;;;;;;;;;17.67;17.67;;;;;;;;5050078;28;51356;-61
2022/08/26 04:33:08;;;;;;;;;16.67;16.00;;;;;;;;5036339;28;51081;-61
2022/08/26 04:35:34;;;;;;;;;18.33;17.33;;;;;;;;5047322;28;52157;-61
2022/08/26 04:37:59;;;;;;;;;18.33;16.00;;;;;;;;5040917;28;51159;-61
2022/08/26 04:40:26;;;;;;;;;18.00;17.00;;;;;;;;5047013;28;51240;-61
2022/08/26 04:42:51;;;;;;;;;17.33;16.00;;;;;;;;5036656;28;50982;-60
2022/08/26 04:45:16;;;;;;;;;18.33;17.33;;;;;;;;5042611;28;53616;-61
2022/08/26 04:47:42;;;;;;;;;19.33;17.67;;;;;;;;5043852;28;51192;-60
2022/08/26 04:50:07;;;;;;;;;17.33;16.67;;;;;;;;5052604;28;50966;-60
2022/08/26 04:52:33;;;;;;;;;19.00;18.00;;;;;;;;5049608;28;51240;-61
2022/08/26 04:54:58;;;;;;;;;20.67;18.67;;;;;;;;5037779;28;52790;-60
2022/08/26 04:57:23;;;;;;;;;20.00;16.50;;;;;;;;5037535;28;51161;-60
2022/08/26 04:59:48;;;;;;;;;19.00;18.00;;;;;;;;5042253;28;51236;-61
2022/08/26 05:02:13;;;;;;;;;18.33;17.67;;;;;;;;5047128;28;51344;-60
2022/08/26 05:04:42;;;;;;;;;19.00;18.33;;;;;;;;5034447;28;52388;-60
2022/08/26 05:07:08;;;;;;;;;21.50;20.25;;;;;;;;5053199;28;51004;-61
2022/08/26 05:09:33;;;;;;;;;20.75;18.75;;;;;;;;5066746;28;51309;-60
2022/08/26 05:11:58;;;;;;;;;19.00;19.00;;;;;;;;5072711;28;50831;-61
2022/08/26 05:14:24;;;;;;;;;19.33;19.33;;;;;;;;5063530;27;52291;-61
2022/08/26 05:16:49;;;;;;;;;19.33;17.33;;;;;;;;5054534;28;51357;-61
2022/08/26 05:19:15;;;;;;;;;19.33;18.33;;;;;;;;5056714;28;51127;-61
2022/08/26 05:21:41;;;;;;;;;20.75;19.50;;;;;;;;5068124;28;51166;-61
2022/08/26 05:24:06;;;;;;;;;22.50;21.00;;;;;;;;5061775;28;51144;-60
2022/08/26 05:26:31;;;;;;;;;21.33;19.33;;;;;;;;5073829;27;51071;-60
2022/08/26 05:28:57;;;;;;;;;20.00;17.50;;;;;;;;5061673;28;51186;-60
2022/08/26 05:31:24;;;;;;;;;23.25;22.00;;;;;;;;5059475;28;51259;-61
2022/08/26 05:33:49;;;;;;;;;20.75;19.25;;;;;;;;5067162;28;51992;-61
2022/08/26 05:36:16;;;;;;;;;18.67;17.67;;;;;;;;5063061;27;51034;-61
2022/08/26 05:38:42;;;;;;;;;17.67;17.33;;;;;;;;5055614;27;51696;-61
2022/08/26 05:41:14;;;;;;;;;19.00;18.67;;;;;;;;5067571;27;51285;-61
2022/08/26 05:43:40;;;;;;;;;23.00;21.00;;;;;;;;5066557;28;52460;-61
2022/08/26 05:46:05;;;;;;;;;17.33;17.00;;;;;;;;5067424;28;51002;-60
2022/08/26 05:48:30;;;;;;;;;18.33;17.67;;;;;;;;5055408;28;51284;-60
2022/08/26 05:50:56;;;;;;;;;23.00;21.33;;;;;;;;5059642;28;51477;-60
2022/08/26 05:53:22;;;;;;;;;18.67;17.00;;;;;;;;5066179;27;51903;-60
2022/08/26 05:55:49;;;;;;;;;22.00;20.00;;;;;;;;5067088;28;51087;-60
2022/08/26 05:58:15;;;;;;;;;24.00;23.33;;;;;;;;5068218;27;51314;-60
2022/08/26 06:00:40;;;;;;;;;21.00;20.25;;;;;;;;5055642;28;50879;-60
2022/08/26 06:03:07;;;;;;;;;21.75;21.50;;;;;;;;5059613;28;51185;-61
2022/08/26 06:05:35;;;;;;;;;21.25;19.50;;;;;;;;5067689;27;51241;-62
2022/08/26 06:08:10;;;;;;;;;19.00;18.67;;;;;;;;5068118;28;52736;-61
2022/08/26 06:10:42;;;;;;;;;20.75;19.75;;;;;;;;5056082;28;51100;-61
2022/08/26 06:13:07;;;;;;;;;22.00;20.00;;;;;;;;5068690;28;52245;-60
2022/08/26 06:15:34;;;;;;;;;17.50;17.50;;;;;;;;5063018;28;50913;-60
2022/08/26 06:17:59;;;;;;;;;22.50;18.50;;;;;;;;5067177;27;51177;-60
2022/08/26 06:20:25;;;;;;;;;24.25;21.25;;;;;;;;5069266;27;51100;-60
2022/08/26 06:25:38;;;;;;;;;19.25;18.75;;;;;;;;5045285;27;51118;-60
2022/08/26 06:28:04;;;;;;;;;22.75;22.00;;;;;;;;5063739;28;51164;-61
2022/08/26 06:30:30;;;;;;;;;14.75;13.50;;;;;;;;5056638;28;51371;-61
2022/08/26 06:32:55;;;;;;;;;20.50;19.00;;;;;;;;5059924;28;52220;-60
2022/08/26 06:35:21;;;;;;;;;13.67;13.33;;;;;;;;5072177;27;50996;-60
2022/08/26 06:37:46;;;;;;;;;18.00;17.00;;;;;;;;5070192;28;52229;-62
2022/08/26 06:40:12;;;;;;;;;13.75;13.75;;;;;;;;5061097;28;51361;-61
2022/08/26 06:42:37;;;;;;;;;21.00;17.00;;;;;;;;5063593;27;51812;-63
2022/08/26 06:45:02;;;;;;;;;16.33;15.33;;;;;;;;5063844;28;51104;-61
2022/08/26 06:47:28;;;;;;;;;15.67;14.00;;;;;;;;5070365;27;51167;-62
2022/08/26 06:49:53;;;;;;;;;18.00;17.00;;;;;;;;5077028;27;50984;-63
2022/08/26 06:52:18;;;;;;;;;19.00;17.67;;;;;;;;5070783;28;51238;-62
2022/08/26 06:54:43;;;;;;;;;18.33;16.33;;;;;;;;5056767;27;51208;-63
2022/08/26 06:57:09;;;;;;;;;17.67;17.00;;;;;;;;5086209;27;51211;-62
2022/08/26 06:59:35;;;;;;;;;16.33;16.00;;;;;;;;5063582;28;51260;-62
2022/08/26 07:02:01;;;;;;;;;16.00;16.00;;;;;;;;5072136;28;51833;-62
2022/08/26 07:04:26;;;;;;;;;20.00;19.33;;;;;;;;5063336;28;51033;-62
2022/08/26 07:06:51;;;;;;;;;17.25;16.25;;;;;;;;5067964;28;51164;-62
2022/08/26 07:09:17;;;;;;;;;15.00;14.67;;;;;;;;5071731;28;51317;-62
2022/08/26 07:11:43;;;;;;;;;16.67;15.33;;;;;;;;5067085;27;51220;-61
2022/08/26 07:14:08;;;;;;;;;17.00;16.67;;;;;;;;5061821;27;51104;-62
2022/08/26 07:16:34;;;;;;;;;11.33;10.33;;;;;;;;5069025;28;50910;-63
2022/08/26 07:18:59;;;;;;;;;10.67;10.67;;;;;;;;5069762;27;50882;-62
2022/08/26 07:21:24;;;;;;;;;15.00;14.33;;;;;;;;5069362;28;51183;-62
2022/08/26 07:23:50;;;;;;;;;15.33;15.33;;;;;;;;5072391;28;50902;-62
2022/08/26 07:26:17;;;;;;;;;14.33;14.33;;;;;;;;5065840;27;51200;-65
2022/08/26 07:28:44;;;;;;;;;13.33;13.00;;;;;;;;5066016;28;53044;-63
2022/08/26 07:31:11;;;;;;;;;15.00;13.67;;;;;;;;5070566;28;53775;-63
2022/08/26 07:33:37;;;;;;;;;14.67;14.33;;;;;;;;5059541;28;51150;-63
2022/08/26 07:36:02;;;;;;;;;16.67;16.00;;;;;;;;5070471;28;51061;-62
2022/08/26 07:38:28;;;;;;;;;13.67;13.67;;;;;;;;5075745;28;51010;-62
2022/08/26 07:40:53;;;;;;;;;15.33;15.33;;;;;;;;5075575;28;51097;-62
2022/08/26 07:43:19;;;;;;;;;15.00;14.67;;;;;;;;5075509;28;51076;-63
2022/08/26 07:45:44;;;;;;;;;13.33;13.33;;;;;;;;5073276;28;51163;-63
2022/08/26 07:48:10;;;;;;;;;14.67;14.67;;;;;;;;5076105;28;51126;-62
2022/08/26 07:50:35;;;;;;;;;12.00;11.33;;;;;;;;5076089;28;52095;-62
2022/08/26 07:53:01;;;;;;;;;15.33;15.00;;;;;;;;5075644;28;51008;-63
2022/08/26 07:55:27;;;;;;;;;14.67;14.00;;;;;;;;5073853;28;51037;-63
2022/08/26 07:57:52;;;;;;;;;14.67;14.00;;;;;;;;5075588;28;51116;-63
2022/08/26 08:00:17;;;;;;;;;15.33;14.33;;;;;;;;5075058;28;52120;-62
2022/08/26 08:02:46;;;;;;;;;13.33;12.67;;;;;;;;5074623;28;51146;-62
2022/08/26 08:05:12;;;;;;;;;12.00;12.00;;;;;;;;5075131;27;50938;-63
2022/08/26 08:07:38;;;;;;;;;14.67;14.67;;;;;;;;5075064;28;51228;-62
2022/08/26 08:10:04;;;;;;;;;13.67;12.00;;;;;;;;5073475;28;54106;-63
2022/08/26 08:12:29;;;;;;;;;17.33;17.33;;;;;;;;5074877;28;51106;-63
2022/08/26 08:14:54;;;;;;;;;12.33;12.00;;;;;;;;5053417;28;51327;-63
2022/08/26 08:17:20;;;;;;;;;12.00;11.33;;;;;;;;5071396;28;51136;-63
2022/08/26 08:19:45;;;;;;;;;12.67;11.67;;;;;;;;5072534;28;52638;-63
2022/08/26 08:22:10;;;;;;;;;10.00;9.67;;;;;;;;5075099;28;51082;-65
2022/08/26 08:24:36;;;;;;;;;11.00;11.00;;;;;;;;5075195;27;51001;-63
2022/08/26 08:27:02;;;;;;;;;10.33;10.33;;;;;;;;5075173;28;51296;-63
2022/08/26 08:29:30;;;;;;;;;9.00;9.00;;;;;;;;5072773;28;52471;-62
2022/08/26 08:31:55;;;;;;;;;10.67;10.33;;;;;;;;5074839;27;51052;-63
2022/08/26 08:34:21;;;;;;;;;15.00;15.00;;;;;;;;5074544;27;51278;-63
2022/08/26 08:36:47;;;;;;;;;11.33;10.33;;;;;;;;5072110;27;51171;-63
2022/08/26 08:39:12;;;;;;;;;13.33;13.33;;;;;;;;5074521;27;50977;-63
2022/08/26 08:41:38;;;;;;;;;14.33;14.33;;;;;;;;5073142;28;51119;-63
2022/08/26 08:44:07;;;;;;;;;14.67;13.00;;;;;;;;5074212;28;50954;-64
2022/08/26 08:46:35;;;;;;;;;12.33;11.67;;;;;;;;5073176;27;50866;-63
2022/08/26 08:49:02;;;;;;;;;13.33;13.33;;;;;;;;5073779;28;50901;-63
2022/08/26 08:51:38;;;;;;;;;12.33;11.67;;;;;;;;5071994;28;51020;-63
2022/08/26 08:54:04;;;;;;;;;13.00;12.33;;;;;;;;5064441;27;50981;-63
2022/08/26 08:56:48;;;;;;;;;13.33;12.67;;;;;;;;5068576;28;50902;-63
2022/08/26 08:59:30;;;;;;;;;10.00;10.00;;;;;;;;5072230;28;53202;-64
2022/08/26 09:02:02;;;;;;;;;12.67;11.67;;;;;;;;5073699;28;50850;-63
2022/08/26 09:04:36;;;;;;;;;13.00;13.00;;;;;;;;5073781;28;51101;-63
2022/08/26 09:07:02;;;;;;;;;13.00;13.00;;;;;;;;5076954;27;51040;-63
2022/08/26 09:09:27;;;;;;;;;11.00;11.00;;;;;;;;5073534;28;51125;-66
2022/08/26 09:11:54;;;;;;;;;12.33;11.33;;;;;;;;5074186;28;51010;-63
2022/08/26 09:14:20;;;;;;;;;12.00;11.00;;;;;;;;5073057;27;51196;-63
2022/08/26 09:16:51;;;;;;;;;8.67;7.67;;;;;;;;5076711;27;51042;-62
2022/08/26 09:19:28;;;;;;;;;9.33;9.00;;;;;;;;5073136;28;51278;-63
2022/08/26 09:21:57;;;;;;;;;10.67;10.67;;;;;;;;5073718;28;51130;-63
2022/08/26 09:24:23;;;;;;;;;8.33;8.33;;;;;;;;5072627;28;50998;-63
2022/08/26 09:26:48;;;;;;;;;9.67;9.00;;;;;;;;5072414;28;51341;-64
2022/08/26 09:29:17;;;;;;;;;10.67;10.67;;;;;;;;5072518;28;51507;-64
2022/08/26 09:31:42;;;;;;;;;11.00;10.67;;;;;;;;5073516;28;51107;-63
2022/08/26 09:34:16;;;;;;;;;12.00;12.00;;;;;;;;5073254;28;51103;-63
2022/08/26 09:36:50;;;;;;;;;8.00;8.00;;;;;;;;5071995;28;51075;-63
2022/08/26 09:39:26;;;;;;;;;10.67;10.67;;;;;;;;5072879;27;51192;-63
2022/08/26 09:42:01;;;;;;;;;10.00;10.00;;;;;;;;5071569;28;51232;-64
2022/08/26 09:44:26;;;;;;;;;12.00;10.67;;;;;;;;5073305;28;50931;-64
2022/08/26 09:46:55;;;;;;;;;10.67;10.67;;;;;;;;5073509;28;51545;-63
2022/08/26 09:49:24;;;;;;;;;8.00;7.67;;;;;;;;5072813;28;51326;-63
2022/08/26 09:52:01;;;;;;;;;15.00;14.33;;;;;;;;5071683;28;51079;-63
2022/08/26 09:54:27;;;;;;;;;11.33;11.00;;;;;;;;5062773;28;51177;-63
2022/08/26 09:57:08;;;;;;;;;14.33;12.00;;;;;;;;5071987;28;51197;-63
2022/08/26 09:59:33;;;;;;;;;11.33;11.00;;;;;;;;5071832;28;51228;-63
2022/08/26 10:02:14;;;;;;;;;9.00;9.00;;;;;;;;5072451;28;51026;-63
2022/08/26 10:04:48;;;;;;;;;10.33;10.33;;;;;;;;5051173;28;51214;-63
2022/08/26 10:07:32;;;;;;;;;4.33;3.67;;;;;;;;5067345;28;51232;-64
2022/08/26 10:09:57;;;;;;;;;10.33;10.33;;;;;;;;5072335;28;52750;-63
2022/08/26 10:12:23;;;;;;;;;11.33;10.67;;;;;;;;5071578;28;51003;-64
2022/08/26 10:14:55;;;;;;;;;11.67;11.00;;;;;;;;5072549;27;51286;-65
2022/08/26 10:17:20;;;;;;;;;10.00;9.00;;;;;;;;5072719;28;51213;-64
2022/08/26 10:19:49;;;;;;;;;13.00;12.33;;;;;;;;5072367;28;51107;-62
2022/08/26 10:22:22;;;;;;;;;10.00;10.00;;;;;;;;5072397;28;51068;-64
2022/08/26 10:24:49;;;;;;;;;7.67;7.00;;;;;;;;5070790;28;51194;-63
2022/08/26 10:27:15;;;;;;;;;9.33;9.33;;;;;;;;5072490;28;51055;-63
2022/08/26 10:29:45;;;;;;;;;9.00;9.00;;;;;;;;5071451;28;50968;-64
2022/08/26 10:32:12;;;;;;;;;7.00;7.00;;;;;;;;5072645;27;51449;-64
2022/08/26 10:34:38;;;;;;;;;8.33;8.00;;;;;;;;5072369;28;51023;-64
2022/08/26 10:37:08;;;;;;;;;7.33;7.33;;;;;;;;5072538;28;51240;-63
2022/08/26 10:39:50;;;;;;;;;8.67;8.33;;;;;;;;5071998;28;52238;-64
2022/08/26 10:42:45;;;;;;;;;12.00;9.33;;;;;;;;5067816;27;50936;-64
2022/08/26 10:45:10;;;;;;;;;9.00;9.00;;;;;;;;5053969;28;51108;-64
2022/08/26 10:47:40;;;;;;;;;7.67;7.00;;;;;;;;5072835;27;51197;-64
2022/08/26 10:50:06;;;;;;;;;8.33;8.33;;;;;;;;5069011;28;53237;-64
2022/08/26 10:52:39;;;;;;;;;10.33;10.33;;;;;;;;5067474;28;50950;-63
2022/08/26 10:55:11;;;;;;;;;9.67;9.67;;;;;;;;5083077;27;51062;-63
2022/08/26 10:57:42;;;;;;;;;6.00;6.00;;;;;;;;5068137;27;51092;-65
2022/08/26 11:01:40;;;;;;;;;12.00;10.00;;;;;;;;5071317;27;51265;-65
2022/08/26 11:02:56;;;;;;;;;9.67;9.33;;;;;;;;5071394;28;51337;-65
2022/08/26 11:05:22;;;;;;;;;7.00;7.00;;;;;;;;5072044;28;51054;-66
2022/08/26 11:07:53;;;;;;;;;11.00;11.00;;;;;;;;5063222;28;51433;-63
2022/08/26 11:10:18;;;;;;;;;9.33;9.33;;;;;;;;5072334;27;52149;-63
2022/08/26 11:12:46;;;;;;;;;8.00;7.33;;;;;;;;5073638;28;51183;-62
2022/08/26 11:15:12;;;;;;;;;6.00;5.67;;;;;;;;5075528;27;51126;-65
2022/08/26 11:17:46;;;;;;;;;7.00;6.33;;;;;;;;5068532;27;51348;-66
2022/08/26 11:20:30;;;;;;;;;8.00;8.00;;;;;;;;5073885;28;52488;-64
2022/08/26 11:23:15;;;;;;;;;7.00;7.00;;;;;;;;5075131;27;50829;-64
2022/08/26 11:26:00;;;;;;;;;6.67;6.67;;;;;;;;5075937;27;50918;-63
2022/08/26 11:28:47;;;;;;;;;6.00;6.00;;;;;;;;5073963;28;51338;-63
2022/08/26 11:31:24;;;;;;;;;9.33;8.33;;;;;;;;5075053;27;51782;-64
2022/08/26 11:33:51;;;;;;;;;5.33;5.33;;;;;;;;5061454;28;51183;-64
2022/08/26 11:36:35;;;;;;;;;7.00;6.67;;;;;;;;5075058;27;51158;-64
2022/08/26 11:39:01;;;;;;;;;7.00;7.00;;;;;;;;5075530;27;51385;-63
2022/08/26 11:41:28;;;;;;;;;5.67;5.67;;;;;;;;5075127;28;51974;-64
2022/08/26 11:43:54;;;;;;;;;9.33;8.67;;;;;;;;5075292;28;51061;-64
2022/08/26 11:46:24;;;;;;;;;6.67;6.67;;;;;;;;5064443;28;51158;-63
2022/08/26 11:48:49;;;;;;;;;7.00;6.00;;;;;;;;5074094;28;51296;-63
2022/08/26 11:51:15;;;;;;;;;6.33;6.33;;;;;;;;5067087;28;52229;-63
2022/08/26 11:53:41;;;;;;;;;7.67;7.33;;;;;;;;5077157;27;51067;-63
2022/08/26 11:56:15;;;;;;;;;7.00;7.00;;;;;;;;5078633;27;51022;-64
2022/08/26 11:58:42;;;;;;;;;9.33;9.33;;;;;;;;5073379;28;51396;-63
2022/08/26 12:01:07;;;;;;;;;9.67;8.67;;;;;;;;5072593;28;51755;-63
2022/08/26 12:03:34;;;;;;;;;5.33;5.33;;;;;;;;5072854;28;51081;-63
2022/08/26 12:05:59;;;;;;;;;5.00;5.00;;;;;;;;5074594;28;51140;-65
2022/08/26 12:08:27;;;;;;;;;7.00;6.67;;;;;;;;5072852;27;51008;-64
2022/08/26 12:11:07;;;;;;;;;6.00;6.00;;;;;;;;5074476;28;51986;-66
2022/08/26 12:13:33;;;;;;;;;5.00;4.00;;;;;;;;5058262;28;51102;-65
2022/08/26 12:15:59;;;;;;;;;5.33;5.33;;;;;;;;5072839;28;51139;-66
2022/08/26 12:18:28;;;;;;;;;6.33;6.33;;;;;;;;5075103;27;51041;-63
2022/08/26 12:20:55;;;;;;;;;9.00;7.33;;;;;;;;5074228;28;51069;-62
2022/08/26 12:23:20;;;;;;;;;4.33;4.33;;;;;;;;5073868;28;51185;-62
2022/08/26 12:25:46;;;;;;;;;6.00;6.00;;;;;;;;5074604;28;51036;-62
2022/08/26 12:28:11;;;;;;;;;5.67;5.67;;;;;;;;5074373;28;51427;-63
2022/08/26 12:30:36;;;;;;;;;5.33;5.33;;;;;;;;5068341;28;51490;-61
2022/08/26 12:33:04;;;;;;;;;7.00;6.00;;;;;;;;5057303;28;51164;-64
2022/08/26 12:35:29;;;;;;;;;5.00;5.00;;;;;;;;5074477;28;51131;-64
2022/08/26 12:37:55;;;;;;;;;9.00;8.00;;;;;;;;5074234;27;50948;-64
2022/08/26 12:40:29;;;;;;;;;8.00;8.00;;;;;;;;5074227;27;51089;-64
2022/08/26 12:42:56;;;;;;;;;6.67;6.67;;;;;;;;5074019;27;51117;-64
2022/08/26 12:45:28;;;;;;;;;6.00;5.33;;;;;;;;5068248;27;51334;-64
2022/08/26 12:47:57;;;;;;;;;5.00;5.00;;;;;;;;5072006;28;51490;-65
2022/08/26 12:50:27;;;;;;;;;7.00;7.00;;;;;;;;5073588;28;52363;-67
2022/08/26 12:52:55;;;;;;;;;4.00;4.00;;;;;;;;5062229;28;50992;-65
2022/08/26 12:55:33;;;;;;;;;6.00;6.00;;;;;;;;5074159;27;50999;-66
2022/08/26 12:58:17;;;;;;;;;5.00;5.00;;;;;;;;5073582;27;50941;-64
2022/08/26 13:00:43;;;;;;;;;5.33;5.33;;;;;;;;5071986;28;52098;-67
2022/08/26 13:03:27;;;;;;;;;5.00;5.00;;;;;;;;5072507;27;51186;-67
2022/08/26 13:05:52;;;;;;;;;5.67;5.00;;;;;;;;5073833;27;51377;-66
2022/08/26 13:08:24;;;;;;;;;4.33;4.33;;;;;;;;5070153;27;51044;-66
2022/08/26 13:11:01;;;;;;;;;6.00;6.00;;;;;;;;5072794;28;52897;-66
2022/08/26 13:13:27;;;;;;;;;5.00;5.00;;;;;;;;5073611;28;51035;-67
2022/08/26 13:15:52;;;;;;;;;7.00;5.67;;;;;;;;5073768;27;50916;-68
2022/08/26 13:18:17;;;;;;;;;4.67;4.67;;;;;;;;5074415;27;51138;-68
2022/08/26 13:20:43;;;;;;;;;6.33;6.33;;;;;;;;5071502;28;51949;-67
2022/08/26 13:23:08;;;;;;;;;6.33;6.33;;;;;;;;5073638;27;51059;-66
2022/08/26 13:25:34;;;;;;;;;5.33;5.33;;;;;;;;5073572;28;51165;-68
2022/08/26 13:27:59;;;;;;;;;7.67;6.33;;;;;;;;5073679;28;51120;-67
2022/08/26 13:30:24;;;;;;;;;6.00;5.67;;;;;;;;5073301;28;52053;-63
2022/08/26 13:32:51;;;;;;;;;6.00;6.00;;;;;;;;5073025;27;50960;-66
2022/08/26 13:35:17;;;;;;;;;6.00;5.33;;;;;;;;5071547;28;50999;-64
2022/08/26 13:37:42;;;;;;;;;6.00;6.00;;;;;;;;5073802;28;51291;-68
2022/08/26 13:40:08;;;;;;;;;6.00;6.00;;;;;;;;5073650;28;51956;-66
2022/08/26 13:42:33;;;;;;;;;7.00;7.00;;;;;;;;5073340;27;51001;-65
2022/08/26 13:44:59;;;;;;;;;7.00;6.67;;;;;;;;5068732;27;51054;-65
2022/08/26 13:47:25;;;;;;;;;4.33;4.33;;;;;;;;5064781;28;51002;-63
2022/08/26 13:49:50;;;;;;;;;5.00;5.00;;;;;;;;5072783;28;51061;-64
2022/08/26 13:52:16;;;;;;;;;9.00;8.00;;;;;;;;5072224;28;51015;-63
2022/08/26 13:54:41;;;;;;;;;5.33;5.33;;;;;;;;5073634;27;50968;-65
2022/08/26 13:57:07;;;;;;;;;4.00;4.00;;;;;;;;5071427;28;50878;-64
2022/08/26 13:59:33;;;;;;;;;7.00;7.00;;;;;;;;5073202;27;51204;-63
2022/08/26 14:01:59;;;;;;;;;5.67;5.00;;;;;;;;5073130;28;50996;-63
2022/08/26 14:04:24;;;;;;;;;5.33;5.33;;;;;;;;5073134;28;51032;-62
2022/08/26 14:06:50;;;;;;;;;6.00;6.00;;;;;;;;5061496;27;51121;-62
2022/08/26 14:09:15;;;;;;;;;7.00;7.00;;;;;;;;5072902;28;52744;-61
2022/08/26 14:11:40;;;;;;;;;5.33;5.33;;;;;;;;5072806;27;51125;-62
2022/08/26 14:14:06;;;;;;;;;6.00;5.00;;;;;;;;5073013;27;51237;-62
2022/08/26 14:16:33;;;;;;;;;8.67;8.67;;;;;;;;5073105;27;51185;-63
2022/08/26 14:19:00;;;;;;;;;7.00;7.00;;;;;;;;5072312;27;51735;-62
2022/08/26 14:21:28;;;;;;;;;7.00;7.00;;;;;;;;5055789;27;51305;-62
2022/08/26 14:23:54;;;;;;;;;7.00;7.00;;;;;;;;5069542;28;51033;-63
2022/08/26 14:26:19;;;;;;;;;7.00;7.00;;;;;;;;5072830;27;50914;-64
2022/08/26 14:28:44;;;;;;;;;6.00;6.00;;;;;;;;5071881;27;52303;-64
2022/08/26 14:31:10;;;;;;;;;7.33;7.33;;;;;;;;5072775;28;51088;-63
2022/08/26 14:33:36;;;;;;;;;5.67;5.67;;;;;;;;5070366;28;51017;-65
2022/08/26 14:38:46;;;;;;;;;6.00;6.00;;;;;;;;5071836;28;50969;-64